KPIA/PIA METAR and TAF weather

Enter ICAO airport designator
Station Type Date Time Source
KPIA METAR 2020/09/19 05:54 UTC NOAA

KPIA 190554Z 08006KT 10SM CLR 09/03 A3037 RMK AO2 SLP286 T00940033 10144 20094 401940094 51006


Station Type Date Time Source
KPIA Decoded METAR 2020/09/19 05:54 UTC NOAA

GREATER PEORIA REGIONAL AIRPORT , IL, United States (KPIA) 40-40N 89-41W 205M
Sep 19, 2020 - 01:54 AM EDT / 2020.09.19 0554 UTC
Wind: from the E (080 degrees) at 7 MPH (6 KT):0
Visibility: 10 mile(s):0
Sky conditions: clear
Temperature: 48.9 F (9.4 C)
Dew Point: 37.9 F (3.3 C)
Relative Humidity: 65%
Pressure (altimeter): 30.37 in. Hg (1028 hPa)
Pressure tendency: 0.02 inches (0.6 hPa) higher than three hours ago
ob: KPIA 190554Z 08006KT 10SM CLR 09/03 A3037 RMK AO2 SLP286 T00940033 10144 20094 401940094 51006
cycle: 6

Station Type Date Time Source
KPIA TAF 2020/09/19 06:22 UTC NOAA

TAF KPIA 190520Z 1906/2006 09005KT P6SM SKC

Example: see airport list